Time;durP1;ratioP1;P1;durP2;ratioP2;P2;SDS_P1;SDS_P2;PMS_P1;PMS_P2;Temp;Humidity;BMP_temperature;BMP_pressure;BME280_temperature;BME280_humidity;BME280_pressure;Samples;Min_cycle;Max_cycle;Signal;HPM_P1;HPM_P2
2023/12/29 00:02:19;;;;;;;3.30;1.73;;;;;;;11.54;75.64;100565.03;5108103;28;20266;-80
2023/12/29 00:04:50;;;;;;;3.27;1.63;;;;;;;11.58;75.38;100560.25;5104841;28;20210;-80
2023/12/29 00:30:58;;;;;;;3.37;1.90;;;;;;;11.35;74.80;100535.97;4932833;29;20271;-80
2023/12/29 00:52:03;;;;;;;4.87;1.80;;;;;;;11.23;74.28;100545.16;4834978;29;20269;-80
2023/12/29 00:54:55;;;;;;;2.30;1.57;;;;;;;11.23;74.21;100545.16;4940989;28;20215;-80
2023/12/29 01:01:35;;;;;;;5.13;2.03;;;;;;;11.35;73.77;100533.31;5037041;28;20210;-80
2023/12/29 01:16:17;;;;;;;4.67;2.30;;;;;;;11.21;73.35;100536.50;4974229;28;20255;-80
2023/12/29 02:28:47;;;;;;;5.40;1.80;;;;;;;11.22;70.32;100495.69;4833471;29;20241;-80
2023/12/29 03:01:14;;;;;;;3.40;1.80;;;;;;;11.00;69.54;100482.84;5011632;28;20300;-81
2023/12/29 03:08:06;;;;;;;5.93;1.93;;;;;;;11.05;69.61;100478.78;4862638;29;20368;-78
2023/12/29 03:18:40;;;;;;;;;;;;;;;;;;;;;
2023/12/29 04:12:56;;;;;;;3.00;1.70;;;;;;;11.20;71.13;100453.38;4823026;29;20861;-82
2023/12/29 05:08:26;;;;;;;2.90;1.60;;;;;;;11.09;69.64;100448.28;4871791;29;20257;-80
2023/12/29 05:26:50;;;;;;;3.20;1.73;;;;;;;11.24;69.97;100430.03;4767473;29;20330;-81
2023/12/29 05:30:37;;;;;;;;;;;;;;;;;;;;;
2023/12/29 07:40:15;;;;;;;3.17;1.43;;;;;;;11.61;68.48;100454.53;4773127;29;20260;-65
2023/12/29 07:42:46;;;;;;;4.47;1.27;;;;;;;11.64;67.84;100454.22;4899353;28;21065;-67
2023/12/29 07:45:14;;;;;;;4.30;1.30;;;;;;;11.72;67.75;100463.25;5013656;28;20995;-68
2023/12/29 07:47:42;;;;;;;3.57;1.20;;;;;;;11.80;67.60;100456.19;5036175;28;20212;-68
2023/12/29 07:50:11;;;;;;;4.93;1.13;;;;;;;11.76;66.98;100457.50;5032394;28;20748;-67
2023/12/29 07:52:39;;;;;;;3.63;1.17;;;;;;;11.81;67.06;100454.38;5033643;28;20727;-66
2023/12/29 07:55:10;;;;;;;5.47;1.30;;;;;;;11.79;66.71;100462.50;5036214;28;20714;-66
2023/12/29 07:57:40;;;;;;;1.87;0.90;;;;;;;11.79;66.51;100457.19;5033373;28;20212;-67
2023/12/29 08:00:11;;;;;;;4.73;1.23;;;;;;;11.83;66.46;100458.53;5033331;28;20216;-66
2023/12/29 08:02:39;;;;;;;7.83;1.40;;;;;;;11.84;65.67;100456.72;5036313;28;20573;-67
2023/12/29 08:05:08;;;;;;;2.73;1.10;;;;;;;11.91;65.73;100460.41;5037646;28;20292;-66
2023/12/29 08:07:37;;;;;;;2.90;1.43;;;;;;;11.92;65.64;100467.41;5038392;28;20806;-68
2023/12/29 08:10:06;;;;;;;3.77;1.30;;;;;;;11.97;65.69;100473.06;5037779;28;20781;-67
2023/12/29 08:12:35;;;;;;;3.70;1.10;;;;;;;11.94;65.44;100465.44;5037212;28;20814;-66
2023/12/29 08:15:06;;;;;;;2.33;1.10;;;;;;;11.92;64.99;100478.88;5036756;28;20351;-68
2023/12/29 08:17:34;;;;;;;4.83;1.40;;;;;;;11.94;64.88;100470.75;5036483;28;20207;-67
2023/12/29 08:20:03;;;;;;;3.53;1.20;;;;;;;11.93;64.68;100467.25;5038161;28;20215;-66
2023/12/29 08:22:32;;;;;;;4.70;0.87;;;;;;;12.03;64.44;100473.28;5036928;28;20248;-66
2023/12/29 08:25:01;;;;;;;1.93;0.90;;;;;;;12.01;64.58;100472.59;5039422;28;20317;-67
2023/12/29 08:27:29;;;;;;;3.23;0.83;;;;;;;12.04;64.63;100467.00;5084088;28;20205;-66
2023/12/29 08:29:57;;;;;;;3.47;1.10;;;;;;;12.10;64.62;100478.81;5098198;28;20210;-66
2023/12/29 08:32:27;;;;;;;4.23;1.20;;;;;;;12.15;64.68;100473.84;5101139;28;20214;-66
2023/12/29 08:34:55;;;;;;;3.27;1.30;;;;;;;12.16;64.78;100483.47;5099480;28;20206;-67
2023/12/29 08:37:27;;;;;;;2.07;1.20;;;;;;;12.13;65.22;100485.63;5101412;28;20210;-65
2023/12/29 08:39:56;;;;;;;3.90;1.40;;;;;;;12.16;65.26;100470.19;5098582;28;20210;-67
2023/12/29 08:42:31;;;;;;;5.23;1.20;;;;;;;12.20;65.89;100468.91;5098649;28;20255;-68
2023/12/29 08:45:03;;;;;;;4.33;1.17;;;;;;;12.19;66.46;100469.88;5098841;28;20754;-67
2023/12/29 08:47:35;;;;;;;4.97;1.27;;;;;;;12.24;66.37;100467.56;5103099;28;20202;-66
2023/12/29 08:50:04;;;;;;;5.33;1.40;;;;;;;12.31;66.04;100465.13;5101972;28;20213;-64
2023/12/29 08:52:33;;;;;;;2.87;1.10;;;;;;;12.31;66.12;100463.28;5099604;28;20552;-66
2023/12/29 08:55:01;;;;;;;2.30;1.23;;;;;;;12.28;66.02;100466.28;5096347;28;20214;-67
2023/12/29 08:57:28;;;;;;;2.87;1.50;;;;;;;12.27;66.37;100467.25;5098532;28;20199;-67
2023/12/29 08:59:56;;;;;;;4.13;1.43;;;;;;;12.26;66.83;100457.63;5099510;28;20211;-69
2023/12/29 09:02:25;;;;;;;5.73;1.60;;;;;;;12.29;66.74;100459.97;5098149;28;20203;-66
2023/12/29 09:04:54;;;;;;;3.30;1.53;;;;;;;12.27;66.76;100456.63;5099100;28;20821;-66
2023/12/29 09:07:22;;;;;;;2.43;1.20;;;;;;;12.28;66.74;100463.63;5100191;28;20210;-65
2023/12/29 09:09:51;;;;;;;2.90;1.10;;;;;;;12.30;66.72;100466.97;5099631;28;20198;-66
2023/12/29 09:12:18;;;;;;;4.20;1.03;;;;;;;12.37;66.27;100460.00;5098301;28;20226;-66
2023/12/29 09:14:46;;;;;;;4.23;0.90;;;;;;;12.35;66.09;100458.47;5099693;28;20683;-65
2023/12/29 09:17:14;;;;;;;4.57;1.33;;;;;;;12.34;66.22;100457.66;5099485;28;20199;-66
2023/12/29 09:19:42;;;;;;;2.63;1.30;;;;;;;12.43;66.01;100467.31;5101500;28;20318;-64
2023/12/29 09:22:15;;;;;;;3.43;1.40;;;;;;;12.48;65.69;100463.38;5101609;28;20206;-69
2023/12/29 09:24:43;;;;;;;2.80;1.20;;;;;;;12.57;65.31;100470.38;5097742;28;20630;-67
2023/12/29 09:27:11;;;;;;;3.73;1.30;;;;;;;12.68;65.19;100456.78;5097878;28;20210;-65
2023/12/29 09:29:39;;;;;;;4.30;1.10;;;;;;;12.64;65.17;100453.63;5097294;28;20268;-67
2023/12/29 09:32:07;;;;;;;4.00;1.30;;;;;;;12.69;65.37;100466.41;5100280;28;20210;-67
2023/12/29 09:34:36;;;;;;;3.87;1.20;;;;;;;12.75;64.99;100460.47;5096882;28;20262;-68
2023/12/29 09:37:04;;;;;;;4.20;1.67;;;;;;;12.74;65.06;100459.63;5097611;28;20208;-66
2023/12/29 09:39:33;;;;;;;3.57;1.27;;;;;;;12.69;65.10;100461.09;5095739;28;20208;-65
2023/12/29 09:42:06;;;;;;;3.10;1.00;;;;;;;12.68;65.46;100462.09;5097293;28;20219;-65
2023/12/29 09:44:37;;;;;;;2.50;1.00;;;;;;;12.66;65.83;100450.78;5096074;28;20202;-66
2023/12/29 09:47:06;;;;;;;2.97;1.17;;;;;;;12.67;66.03;100460.41;5097636;28;20202;-67
2023/12/29 09:49:39;;;;;;;4.67;1.63;;;;;;;12.71;65.82;100459.94;5099781;28;20213;-67
2023/12/29 09:52:12;;;;;;;4.70;1.57;;;;;;;12.66;66.03;100459.63;5098192;28;20218;-67
2023/12/29 09:54:42;;;;;;;3.70;1.60;;;;;;;12.74;65.86;100449.00;5095878;28;20334;-69
2023/12/29 09:57:11;;;;;;;4.03;1.50;;;;;;;12.71;65.87;100454.63;5098832;28;20208;-66
2023/12/29 09:59:42;;;;;;;5.93;1.67;;;;;;;12.73;65.83;100451.81;5096112;28;20203;-66
2023/12/29 10:02:15;;;;;;;2.77;1.00;;;;;;;12.76;66.11;100456.78;5095855;28;20216;-66
2023/12/29 10:04:43;;;;;;;4.30;1.60;;;;;;;12.75;65.50;100453.28;5095915;28;20640;-66
2023/12/29 10:07:19;;;;;;;3.00;1.10;;;;;;;12.78;65.28;100466.28;5098659;28;20235;-66
2023/12/29 10:09:53;;;;;;;3.20;1.20;;;;;;;12.73;64.82;100467.78;5098635;28;20309;-68
2023/12/29 10:12:22;;;;;;;3.50;1.30;;;;;;;12.68;65.35;100465.59;5097849;28;20208;-67
2023/12/29 10:14:59;;;;;;;5.90;1.60;;;;;;;12.71;65.22;100456.44;5095071;28;20228;-66
2023/12/29 10:17:35;;;;;;;4.70;1.03;;;;;;;12.72;65.57;100460.78;5097641;28;20203;-67
2023/12/29 10:20:13;;;;;;;2.27;0.90;;;;;;;12.79;65.16;100456.47;5095880;28;20686;-66
2023/12/29 10:22:52;;;;;;;2.73;0.90;;;;;;;12.87;65.19;100466.28;5093772;28;20209;-67
2023/12/29 10:25:23;;;;;;;2.23;1.07;;;;;;;12.81;64.81;100457.97;5097584;28;20257;-67
2023/12/29 10:27:52;;;;;;;3.27;1.10;;;;;;;12.78;64.67;100454.81;5094389;28;20200;-67
2023/12/29 10:30:21;;;;;;;4.00;1.00;;;;;;;12.76;64.78;100462.09;5097284;28;20204;-67
2023/12/29 10:33:02;;;;;;;2.37;1.00;;;;;;;12.70;64.93;100468.09;5094609;28;20203;-66
2023/12/29 10:35:35;;;;;;;3.03;0.83;;;;;;;12.69;65.19;100466.41;5096292;28;20214;-66
2023/12/29 10:38:11;;;;;;;2.43;0.87;;;;;;;12.74;65.24;100469.44;5095886;28;20675;-66
2023/12/29 10:40:49;;;;;;;3.03;1.03;;;;;;;12.77;65.39;100455.78;5097781;28;20620;-66
2023/12/29 10:43:23;;;;;;;4.73;0.90;;;;;;;12.69;64.87;100466.41;5097973;28;20247;-63
2023/12/29 10:46:08;;;;;;;4.87;1.03;;;;;;;12.64;64.66;100458.94;5097276;28;20223;-67
2023/12/29 10:48:36;;;;;;;3.90;0.80;;;;;;;12.64;64.45;100448.28;5094454;28;20214;-67
2023/12/29 10:51:05;;;;;;;3.33;0.80;;;;;;;12.67;64.42;100447.13;5098167;28;20814;-67
2023/12/29 10:53:34;;;;;;;4.50;1.57;;;;;;;12.73;64.15;100442.00;5097888;28;20356;-67
2023/12/29 10:56:19;;;;;;;2.80;0.80;;;;;;;12.68;64.53;100441.63;5097690;28;20208;-67
2023/12/29 10:59:02;;;;;;;3.60;1.17;;;;;;;12.73;64.43;100425.22;5096742;28;20198;-66
2023/12/29 11:01:31;;;;;;;3.20;0.97;;;;;;;12.85;64.23;100433.69;5096526;27;20314;-67
2023/12/29 11:04:03;;;;;;;4.13;0.90;;;;;;;12.98;63.46;100428.72;5099261;28;20220;-67
2023/12/29 11:06:41;;;;;;;4.80;1.20;;;;;;;13.02;63.11;100425.56;5096689;28;20199;-67
2023/12/29 11:09:11;;;;;;;3.80;1.00;;;;;;;13.12;62.68;100422.75;5096882;28;20203;-69
2023/12/29 11:11:42;;;;;;;3.30;1.10;;;;;;;13.16;62.59;100409.00;5094705;28;20207;-66
2023/12/29 11:14:12;;;;;;;2.70;0.70;;;;;;;13.14;62.06;100408.31;5098376;28;20279;-66
2023/12/29 11:16:42;;;;;;;2.47;0.90;;;;;;;13.52;61.03;100424.63;5093760;28;20600;-66
2023/12/29 11:19:12;;;;;;;2.30;1.10;;;;;;;14.03;59.79;100418.00;5097512;28;20254;-68
2023/12/29 11:21:42;;;;;;;5.43;1.30;;;;;;;14.04;59.30;100424.19;5096207;28;20220;-70
2023/12/29 11:24:10;;;;;;;3.07;1.17;;;;;;;13.92;58.74;100440.53;5097001;28;20239;-66
2023/12/29 11:26:47;;;;;;;4.80;1.33;;;;;;;13.87;59.19;100426.88;5094864;28;20198;-66
2023/12/29 11:29:17;;;;;;;3.27;1.37;;;;;;;13.72;59.55;100428.56;5098271;28;20569;-67
2023/12/29 11:31:48;;;;;;;8.60;1.10;;;;;;;13.67;59.97;100425.59;5096858;28;20217;-67
2023/12/29 11:34:22;;;;;;;2.93;0.80;;;;;;;13.51;60.43;100426.44;5097874;28;20234;-66
2023/12/29 11:36:58;;;;;;;1.97;1.00;;;;;;;13.55;60.46;100426.94;5095607;28;20201;-67
2023/12/29 11:39:38;;;;;;;1.60;0.80;;;;;;;13.56;60.15;100433.91;5095658;28;20216;-68
2023/12/29 11:42:18;;;;;;;3.53;0.80;;;;;;;13.43;60.79;100433.63;5097179;28;20209;-67
2023/12/29 11:44:48;;;;;;;2.27;0.87;;;;;;;13.47;60.69;100440.25;5098744;28;20277;-68
2023/12/29 11:47:37;;;;;;;3.37;0.83;;;;;;;13.46;61.00;100434.09;5096782;28;20210;-66
2023/12/29 11:50:07;;;;;;;3.27;1.30;;;;;;;13.48;61.24;100428.59;5095114;28;20745;-66
2023/12/29 11:52:40;;;;;;;3.83;0.80;;;;;;;13.40;61.24;100428.63;5091898;28;20201;-67
2023/12/29 11:55:09;;;;;;;2.97;1.00;;;;;;;13.32;61.26;100425.94;5097798;28;20217;-67
2023/12/29 11:57:41;;;;;;;3.83;0.83;;;;;;;13.32;61.43;100417.97;5095580;28;20205;-67
2023/12/29 12:00:10;;;;;;;3.20;0.90;;;;;;;13.34;61.39;100421.31;5096917;28;20200;-66
2023/12/29 12:02:41;;;;;;;2.40;0.70;;;;;;;13.35;61.14;100425.63;5095802;28;20613;-67
2023/12/29 12:05:10;;;;;;;2.37;0.90;;;;;;;13.31;61.43;100413.63;5094353;28;20205;-66
2023/12/29 12:08:02;;;;;;;2.80;0.83;;;;;;;13.23;61.07;100421.63;5096510;28;20206;-64
2023/12/29 12:10:38;;;;;;;3.07;0.80;;;;;;;13.18;61.56;100414.16;5094841;28;21065;-66
2023/12/29 12:13:09;;;;;;;2.77;0.87;;;;;;;13.30;61.91;100411.97;5095251;28;20288;-66
2023/12/29 12:15:41;;;;;;;4.37;0.93;;;;;;;13.29;61.76;100420.94;5095608;28;20224;-68
2023/12/29 12:18:12;;;;;;;2.87;0.90;;;;;;;13.37;62.00;100416.44;5096518;28;20766;-67
2023/12/29 12:20:41;;;;;;;4.23;1.00;;;;;;;13.41;62.26;100416.97;5097617;28;20619;-66
2023/12/29 12:23:18;;;;;;;4.77;1.30;;;;;;;13.48;61.86;100409.97;5095444;28;20282;-65
2023/12/29 12:25:47;;;;;;;5.63;1.47;;;;;;;13.54;62.05;100404.78;5095687;28;20201;-67
2023/12/29 12:28:17;;;;;;;4.30;1.17;;;;;;;13.66;62.00;100397.28;5093803;28;20666;-66
2023/12/29 12:30:45;;;;;;;2.43;0.80;;;;;;;13.71;61.43;100407.44;5093628;28;20202;-66
2023/12/29 12:33:14;;;;;;;2.20;0.93;;;;;;;13.86;61.46;100401.22;5094268;28;20213;-68
2023/12/29 12:35:44;;;;;;;5.17;1.00;;;;;;;13.83;61.48;100398.91;5096095;28;20222;-67
2023/12/29 12:38:13;;;;;;;3.83;1.00;;;;;;;13.90;61.51;100405.22;5095441;28;20210;-69
2023/12/29 12:40:42;;;;;;;4.43;1.10;;;;;;;14.05;61.19;100401.84;5094964;28;21053;-67
2023/12/29 12:43:15;;;;;;;2.10;0.87;;;;;;;14.06;60.83;100400.84;5095723;28;20212;-66
2023/12/29 12:45:49;;;;;;;2.57;1.10;;;;;;;14.11;60.59;100403.81;5094292;28;20214;-66
2023/12/29 12:48:22;;;;;;;2.43;0.90;;;;;;;14.03;60.45;100398.50;5094622;28;20203;-66
2023/12/29 12:50:54;;;;;;;3.27;0.70;;;;;;;14.05;60.82;100385.84;5097172;28;20210;-66
2023/12/29 12:53:26;;;;;;;1.87;0.80;;;;;;;14.08;60.85;100396.97;5098061;28;20212;-66
2023/12/29 12:55:55;;;;;;;5.40;1.10;;;;;;;14.02;61.43;100396.84;5094661;28;20211;-67
2023/12/29 12:58:23;;;;;;;2.93;1.00;;;;;;;13.96;61.73;100397.53;5096992;28;20209;-66
2023/12/29 13:00:54;;;;;;;4.57;0.93;;;;;;;13.94;61.70;100400.38;5097001;28;20810;-67
2023/12/29 13:03:24;;;;;;;1.90;0.70;;;;;;;14.02;61.76;100400.34;5097319;28;20563;-67
2023/12/29 13:05:53;;;;;;;3.60;1.20;;;;;;;14.03;62.27;100402.00;5095620;28;20217;-67
2023/12/29 13:08:22;;;;;;;4.07;0.97;;;;;;;14.03;62.63;100402.00;5089000;28;20299;-66
2023/12/29 13:11:02;;;;;;;3.27;0.97;;;;;;;13.93;63.26;100399.53;5098200;28;20623;-66
2023/12/29 13:13:38;;;;;;;2.63;0.90;;;;;;;13.96;62.99;100389.53;5099775;28;20213;-67
2023/12/29 13:16:08;;;;;;;2.17;0.90;;;;;;;13.86;63.63;100392.41;5098433;28;20244;-67
2023/12/29 13:18:36;;;;;;;3.03;0.73;;;;;;;13.82;64.01;100386.56;5099608;28;20209;-67
2023/12/29 13:21:07;;;;;;;1.97;0.80;;;;;;;13.74;64.34;100383.09;5101037;28;20864;-66
2023/12/29 13:23:35;;;;;;;1.33;0.60;;;;;;;13.78;64.73;100384.44;5096921;28;20243;-64
2023/12/29 13:26:08;;;;;;;3.43;0.90;;;;;;;13.79;64.53;100378.94;5099636;28;20301;-66
2023/12/29 13:28:37;;;;;;;2.90;1.10;;;;;;;13.81;64.65;100374.25;5102292;28;20205;-67
2023/12/29 13:31:13;;;;;;;2.60;1.07;;;;;;;13.80;65.00;100372.63;5097489;28;20220;-64
2023/12/29 13:33:51;;;;;;;4.17;1.03;;;;;;;13.81;65.15;100365.41;5098161;28;20204;-66
2023/12/29 13:36:28;;;;;;;2.27;1.00;;;;;;;13.79;65.03;100364.78;5097422;28;20231;-65
2023/12/29 13:39:03;;;;;;;2.17;0.87;;;;;;;13.78;64.95;100371.94;5098077;28;20215;-66
2023/12/29 13:41:35;;;;;;;2.07;0.80;;;;;;;13.76;64.62;100373.94;5100158;28;20262;-66
2023/12/29 13:44:07;;;;;;;2.80;1.33;;;;;;;13.79;64.48;100370.94;5097932;28;20712;-66
2023/12/29 13:46:38;;;;;;;2.60;1.20;;;;;;;13.74;64.61;100369.78;5098695;28;20221;-66
2023/12/29 13:49:15;;;;;;;3.93;0.90;;;;;;;13.71;64.57;100362.13;5097819;28;20543;-66
2023/12/29 13:51:46;;;;;;;2.80;1.07;;;;;;;13.68;64.03;100365.97;5096393;28;21031;-67
2023/12/29 13:54:14;;;;;;;2.87;1.47;;;;;;;13.65;63.85;100360.97;5098993;28;20202;-67
2023/12/29 13:56:53;;;;;;;2.37;1.10;;;;;;;13.58;64.24;100362.66;5096881;28;20274;-67
2023/12/29 13:59:31;;;;;;;3.53;1.00;;;;;;;13.62;63.84;100357.84;5099386;28;20205;-65
2023/12/29 14:02:16;;;;;;;2.37;1.30;;;;;;;13.59;63.80;100364.31;5099144;28;20205;-67
2023/12/29 14:04:45;;;;;;;3.60;0.93;;;;;;;13.49;63.89;100355.69;5099939;27;20267;-67
2023/12/29 14:07:18;;;;;;;2.57;0.80;;;;;;;13.47;64.19;100366.50;5097810;27;20233;-67
2023/12/29 14:09:47;;;;;;;2.77;0.90;;;;;;;13.46;64.47;100372.81;5095762;28;20219;-66
2023/12/29 14:12:25;;;;;;;2.20;0.90;;;;;;;13.33;65.00;100369.88;5096604;28;20204;-66
2023/12/29 14:14:54;;;;;;;3.53;1.37;;;;;;;13.33;65.09;100369.03;5096091;28;20636;-66
2023/12/29 14:17:24;;;;;;;1.27;0.77;;;;;;;13.30;65.48;100375.50;5099019;28;20312;-65
2023/12/29 14:19:52;;;;;;;3.73;1.00;;;;;;;13.27;65.59;100378.53;5097173;28;20201;-67
2023/12/29 14:22:23;;;;;;;2.80;0.90;;;;;;;13.31;65.37;100387.00;5097518;28;20233;-66
2023/12/29 14:25:05;;;;;;;2.60;1.20;;;;;;;13.27;65.70;100381.19;5096534;28;20229;-65
2023/12/29 14:27:41;;;;;;;3.53;1.00;;;;;;;13.23;65.86;100389.66;5096015;28;20224;-66
2023/12/29 14:30:20;;;;;;;3.03;0.83;;;;;;;13.19;65.82;100387.34;5079561;28;20583;-66
2023/12/29 14:32:53;;;;;;;1.33;0.80;;;;;;;13.13;65.93;100398.66;5096351;28;20652;-67
2023/12/29 14:35:22;;;;;;;3.77;1.07;;;;;;;12.98;65.50;100394.13;5098587;28;20223;-66
2023/12/29 14:37:51;;;;;;;3.87;1.20;;;;;;;12.95;65.17;100387.31;5098318;28;20751;-67
2023/12/29 14:40:23;;;;;;;4.00;0.93;;;;;;;12.95;65.55;100392.63;5098085;28;20220;-66
2023/12/29 14:42:51;;;;;;;2.10;0.70;;;;;;;12.86;65.24;100393.63;5096473;28;20200;-67
2023/12/29 14:45:23;;;;;;;1.37;0.70;;;;;;;12.89;65.42;100380.00;5096913;28;20204;-66
2023/12/29 14:47:52;;;;;;;1.53;0.60;;;;;;;12.85;64.78;100381.31;5096251;28;20206;-66
2023/12/29 14:50:21;;;;;;;1.93;0.60;;;;;;;12.86;64.85;100382.97;5097162;28;20203;-66
2023/12/29 14:52:49;;;;;;;2.20;0.67;;;;;;;12.86;65.03;100382.13;5096740;28;20648;-67
2023/12/29 14:55:17;;;;;;;1.90;0.60;;;;;;;12.86;65.28;100388.28;5097944;28;20269;-66
2023/12/29 14:57:46;;;;;;;2.30;0.70;;;;;;;12.83;65.45;100396.63;5087961;28;20257;-67
2023/12/29 15:00:15;;;;;;;2.23;0.83;;;;;;;12.90;65.38;100375.50;5093535;28;20209;-67
2023/12/29 15:02:44;;;;;;;2.73;0.90;;;;;;;12.87;65.10;100374.00;5096423;28;20207;-67
2023/12/29 15:05:13;;;;;;;1.60;0.83;;;;;;;12.83;65.47;100375.34;5095154;28;20293;-67
2023/12/29 15:07:42;;;;;;;1.57;0.80;;;;;;;12.78;65.83;100367.00;5099624;27;20239;-66
2023/12/29 15:10:10;;;;;;;1.60;0.70;;;;;;;12.72;65.56;100362.34;5096456;28;20198;-67
2023/12/29 15:12:40;;;;;;;1.63;0.70;;;;;;;12.54;65.44;100375.78;5096718;28;20266;-66
2023/12/29 15:15:10;;;;;;;2.23;0.70;;;;;;;12.42;65.67;100364.59;5100281;28;20234;-66
2023/12/29 15:17:39;;;;;;;3.83;0.80;;;;;;;12.38;66.14;100352.66;5096631;28;20249;-66
2023/12/29 15:20:08;;;;;;;1.27;0.73;;;;;;;12.36;66.47;100348.47;5095743;28;20206;-67
2023/12/29 15:22:43;;;;;;;2.73;0.87;;;;;;;12.31;66.87;100354.25;5096055;28;20210;-67
2023/12/29 15:25:11;;;;;;;4.00;0.80;;;;;;;12.24;67.09;100345.28;5095557;28;20256;-66
2023/12/29 15:27:39;;;;;;;2.63;0.70;;;;;;;12.23;67.11;100353.41;5096453;28;20214;-66
2023/12/29 15:30:11;;;;;;;5.57;1.10;;;;;;;12.17;67.27;100333.63;5095811;28;20343;-66
2023/12/29 15:32:39;;;;;;;1.70;0.77;;;;;;;12.15;66.96;100332.13;5094455;28;20200;-66
2023/12/29 15:35:08;;;;;;;1.70;0.60;;;;;;;12.07;67.22;100339.06;5093446;28;20735;-66
2023/12/29 15:37:37;;;;;;;3.13;0.80;;;;;;;12.10;67.15;100340.59;5095305;28;20317;-66
2023/12/29 15:40:15;;;;;;;4.30;1.10;;;;;;;12.13;67.02;100348.25;5088379;28;20218;-66
2023/12/29 15:42:44;;;;;;;4.93;0.90;;;;;;;12.13;66.74;100348.25;5088696;28;20211;-66
2023/12/29 15:45:13;;;;;;;3.97;1.10;;;;;;;12.15;66.94;100340.09;5097641;28;20259;-66
2023/12/29 15:47:41;;;;;;;3.13;0.80;;;;;;;12.14;66.52;100333.94;5096097;28;20210;-67
2023/12/29 15:50:10;;;;;;;2.17;0.73;;;;;;;12.10;66.47;100337.94;5094134;28;20210;-66
2023/12/29 15:52:39;;;;;;;3.93;1.07;;;;;;;12.04;66.41;100344.72;5094553;28;20253;-66
2023/12/29 15:55:09;;;;;;;3.30;1.33;;;;;;;12.06;66.71;100340.06;5095475;28;20206;-66
2023/12/29 15:57:38;;;;;;;2.83;0.80;;;;;;;12.08;66.46;100347.88;5089053;28;20873;-67
2023/12/29 16:00:13;;;;;;;4.33;1.17;;;;;;;12.13;66.47;100342.09;5089834;28;20289;-66
2023/12/29 16:02:42;;;;;;;3.60;0.70;;;;;;;12.09;66.29;100341.56;5097423;28;20252;-67
2023/12/29 16:05:10;;;;;;;3.73;0.90;;;;;;;12.08;66.40;100342.56;5099091;28;20303;-67
2023/12/29 16:07:39;;;;;;;4.67;1.10;;;;;;;12.03;66.47;100340.41;5098137;28;20210;-67
2023/12/29 16:10:09;;;;;;;4.13;0.87;;;;;;;12.03;66.33;100337.75;5096582;28;20627;-67
2023/12/29 16:12:39;;;;;;;4.87;1.03;;;;;;;12.02;66.49;100337.91;5097020;28;20204;-68
2023/12/29 16:15:09;;;;;;;6.47;0.93;;;;;;;12.03;66.40;100335.09;5095086;28;20202;-67
2023/12/29 16:17:38;;;;;;;3.33;0.80;;;;;;;11.99;66.28;100330.25;5095917;28;20216;-68
2023/12/29 16:20:07;;;;;;;1.63;0.70;;;;;;;12.01;66.60;100325.59;5096187;28;20213;-67
2023/12/29 16:22:37;;;;;;;5.23;1.20;;;;;;;12.02;66.04;100329.94;5099432;28;20202;-67
2023/12/29 16:25:06;;;;;;;2.00;0.93;;;;;;;12.03;66.26;100334.25;5100295;28;20296;-68
2023/12/29 16:27:35;;;;;;;3.40;1.20;;;;;;;12.02;66.10;100340.56;5099521;28;20218;-68
2023/12/29 16:30:06;;;;;;;3.53;1.47;;;;;;;11.98;66.31;100339.19;5102028;28;20206;-68
2023/12/29 16:32:35;;;;;;;4.90;1.20;;;;;;;11.96;66.46;100341.22;5100652;28;20195;-67
2023/12/29 16:35:05;;;;;;;5.03;1.00;;;;;;;11.99;66.30;100343.53;5096790;28;20209;-67
2023/12/29 16:37:38;;;;;;;3.43;0.90;;;;;;;12.00;66.04;100334.56;5099455;28;20717;-67
2023/12/29 16:40:12;;;;;;;5.40;1.00;;;;;;;12.07;65.87;100332.94;5099592;28;20214;-67
2023/12/29 16:42:43;;;;;;;7.73;1.40;;;;;;;12.10;65.55;100332.63;5098075;28;20220;-67
2023/12/29 16:45:16;;;;;;;3.27;1.10;;;;;;;12.17;65.74;100327.47;5099240;28;20793;-67
2023/12/29 16:47:48;;;;;;;3.97;1.37;;;;;;;12.17;65.32;100336.28;5098827;28;20205;-67
2023/12/29 16:50:20;;;;;;;5.60;1.10;;;;;;;12.23;65.17;100329.47;5099669;28;20209;-68
2023/12/29 16:52:48;;;;;;;3.73;1.20;;;;;;;12.22;64.97;100336.66;5098642;28;20296;-68
2023/12/29 16:55:19;;;;;;;4.00;1.07;;;;;;;12.22;64.82;100319.88;5100298;28;20202;-67
2023/12/29 16:57:47;;;;;;;1.90;0.73;;;;;;;12.21;64.63;100324.34;5099656;28;20230;-68
2023/12/29 17:00:19;;;;;;;4.37;1.10;;;;;;;12.20;64.63;100317.38;5100490;28;20243;-68
2023/12/29 17:02:51;;;;;;;2.73;0.80;;;;;;;12.20;64.86;100312.06;5097230;28;20202;-68
2023/12/29 17:05:23;;;;;;;3.93;1.00;;;;;;;12.19;64.62;100314.88;5097342;27;20206;-67
2023/12/29 17:07:52;;;;;;;3.67;0.97;;;;;;;12.20;64.79;100321.84;5101154;27;20202;-67
2023/12/29 17:10:20;;;;;;;3.10;0.80;;;;;;;12.17;64.88;100317.69;5098327;28;20326;-68
2023/12/29 17:12:51;;;;;;;3.83;1.10;;;;;;;12.14;64.83;100312.69;5095632;28;20671;-68
2023/12/29 17:15:31;;;;;;;3.93;0.93;;;;;;;12.11;64.87;100313.03;5101058;28;20194;-67
2023/12/29 17:17:59;;;;;;;3.20;1.30;;;;;;;12.11;64.78;100313.03;5083981;28;20287;-68
2023/12/29 17:20:27;;;;;;;4.67;1.10;;;;;;;12.08;64.69;100313.34;5100025;28;20215;-67
2023/12/29 17:22:56;;;;;;;4.70;1.10;;;;;;;12.04;65.11;100318.16;5097392;28;20276;-68
2023/12/29 17:25:24;;;;;;;4.63;1.00;;;;;;;12.04;65.07;100315.50;5098519;28;20210;-67
2023/12/29 17:27:56;;;;;;;3.33;1.30;;;;;;;12.07;65.00;100323.13;5099133;28;20210;-66
2023/12/29 17:30:27;;;;;;;4.27;1.17;;;;;;;12.07;65.03;100312.50;5096621;28;20199;-67
2023/12/29 17:32:57;;;;;;;5.33;1.23;;;;;;;12.05;64.66;100318.97;5095470;28;20205;-67
2023/12/29 17:35:25;;;;;;;3.30;1.30;;;;;;;12.06;64.86;100317.97;5096430;28;20213;-69
2023/12/29 17:37:54;;;;;;;6.80;1.30;;;;;;;12.05;64.78;100318.97;5098058;28;20287;-69
2023/12/29 17:40:22;;;;;;;3.40;1.30;;;;;;;12.01;64.92;100322.94;5097843;28;20218;-67
2023/12/29 17:42:50;;;;;;;2.33;1.10;;;;;;;12.00;65.21;100315.97;5097661;28;20236;-68
2023/12/29 17:45:18;;;;;;;3.30;1.50;;;;;;;12.02;65.06;100320.13;5099833;28;20289;-67
2023/12/29 17:47:46;;;;;;;3.93;1.23;;;;;;;11.97;65.19;100317.09;5099678;27;20201;-68
2023/12/29 17:50:16;;;;;;;5.87;1.20;;;;;;;11.94;65.66;100322.75;5097759;28;20211;-68
2023/12/29 17:52:46;;;;;;;7.27;1.40;;;;;;;12.01;65.70;100325.59;5101369;28;20282;-67
2023/12/29 17:55:14;;;;;;;7.60;1.80;;;;;;;12.01;65.79;100317.63;5098589;28;20209;-65
2023/12/29 17:57:42;;;;;;;4.47;1.60;;;;;;;11.99;65.77;100316.94;5099306;27;20242;-67
2023/12/29 18:00:11;;;;;;;5.83;1.90;;;;;;;12.06;65.86;100328.59;5096840;28;20209;-69
2023/12/29 18:02:40;;;;;;;4.20;1.73;;;;;;;12.08;65.66;100334.59;5097200;28;20207;-67
2023/12/29 18:05:08;;;;;;;3.33;1.67;;;;;;;12.07;65.57;100327.63;5098615;28;20210;-67
2023/12/29 18:07:39;;;;;;;3.40;1.37;;;;;;;12.04;65.55;100327.97;5098754;28;20202;-66
2023/12/29 18:10:08;;;;;;;5.27;1.47;;;;;;;12.06;65.52;100323.28;5098099;28;20205;-65
2023/12/29 18:12:37;;;;;;;2.70;1.20;;;;;;;12.10;65.69;100319.31;5097909;28;20210;-67
2023/12/29 18:15:06;;;;;;;4.10;1.70;;;;;;;12.11;65.54;100323.66;5098245;28;20206;-68
2023/12/29 18:17:37;;;;;;;3.67;1.23;;;;;;;12.08;65.67;100318.66;5098091;28;20229;-67
2023/12/29 18:20:07;;;;;;;3.53;1.20;;;;;;;12.16;65.70;100309.88;5100022;28;20296;-66
2023/12/29 18:22:35;;;;;;;4.57;1.33;;;;;;;12.16;65.48;100309.88;5099874;28;20222;-67
2023/12/29 18:25:06;;;;;;;2.30;0.97;;;;;;;12.10;65.77;100306.03;5098066;28;20227;-66
2023/12/29 18:27:35;;;;;;;5.37;1.30;;;;;;;12.09;65.77;100314.16;5099624;28;20195;-68
2023/12/29 18:30:03;;;;;;;4.50;1.37;;;;;;;12.10;65.90;100310.53;5098155;28;20210;-67
2023/12/29 18:32:32;;;;;;;4.40;1.23;;;;;;;12.09;65.93;100327.47;5096772;28;20675;-67
2023/12/29 18:35:03;;;;;;;5.10;1.87;;;;;;;12.05;66.01;100306.50;5094320;28;20273;-68
2023/12/29 18:37:31;;;;;;;3.43;1.10;;;;;;;12.06;66.20;100310.84;5097476;28;20198;-69
2023/12/29 18:40:00;;;;;;;5.23;1.27;;;;;;;12.09;66.33;100324.81;5096465;27;20245;-66
2023/12/29 18:42:30;;;;;;;5.80;1.40;;;;;;;12.08;66.43;100329.28;5093972;28;20864;-68
2023/12/29 18:44:59;;;;;;;4.17;1.40;;;;;;;12.09;66.40;100325.63;5096806;28;21050;-66